createdAt,value
2023-10-10T00:00:24.541Z,5.60
2023-10-10T00:02:52.653Z,5.78
2023-10-10T00:05:28.344Z,5.93
2023-10-10T00:08:00.742Z,6.00
2023-10-10T00:10:32.216Z,6.10
2023-10-10T00:13:05.121Z,6.35
2023-10-10T00:18:08.366Z,6.60
2023-10-10T00:20:45.790Z,6.78
2023-10-10T00:23:16.880Z,6.90
2023-10-10T00:25:46.435Z,6.78
2023-10-10T00:28:19.594Z,6.22
2023-10-10T00:30:47.135Z,6.47
2023-10-10T00:33:22.580Z,6.70
2023-10-10T00:35:50.105Z,6.68
2023-10-10T00:38:25.623Z,6.45
2023-10-10T00:40:55.870Z,7.00
2023-10-10T00:43:25.146Z,6.50
2023-10-10T00:45:53.613Z,6.15
2023-10-10T00:48:23.391Z,6.68
2023-10-10T00:50:54.503Z,6.60
2023-10-10T00:53:24.407Z,7.00
2023-10-10T00:55:57.889Z,7.13
2023-10-10T00:58:37.076Z,6.78
2023-10-10T01:03:50.502Z,6.90
2023-10-10T01:06:27.504Z,7.70
2023-10-10T01:09:16.935Z,6.63
2023-10-10T01:11:44.434Z,7.53
2023-10-10T01:14:19.515Z,6.72
2023-10-10T01:16:48.935Z,7.80
2023-10-10T01:19:19.318Z,7.78
2023-10-10T01:21:51.763Z,8.60
2023-10-10T01:24:19.243Z,8.05
2023-10-10T01:26:46.671Z,7.85
2023-10-10T01:29:26.912Z,8.23
2023-10-10T01:31:55.106Z,8.45
2023-10-10T01:34:32.637Z,8.20
2023-10-10T01:37:01.405Z,8.98
2023-10-10T01:39:35.643Z,8.65
2023-10-10T01:42:03.221Z,7.85
2023-10-10T01:44:30.731Z,9.13
2023-10-10T01:47:00.226Z,8.73
2023-10-10T01:49:30.664Z,8.73
2023-10-10T01:52:00.599Z,9.48
2023-10-10T01:54:42.525Z,8.95
2023-10-10T01:57:21.922Z,9.50
2023-10-10T01:59:50.266Z,9.82
2023-10-10T02:02:20.288Z,9.82
2023-10-10T02:04:49.015Z,9.48
2023-10-10T02:07:27.227Z,9.10
2023-10-10T02:10:00.702Z,9.88
2023-10-10T02:12:28.996Z,9.20
2023-10-10T02:14:56.211Z,9.35
2023-10-10T02:17:27.654Z,9.98
2023-10-10T02:20:01.135Z,9.57
2023-10-10T02:22:34.890Z,10.25
2023-10-10T02:25:21.293Z,9.85
2023-10-10T02:27:56.313Z,10.25
2023-10-10T02:30:36.264Z,10.15
2023-10-10T02:33:17.933Z,9.52
2023-10-10T02:35:56.109Z,9.60
2023-10-10T02:38:24.730Z,10.60
2023-10-10T02:40:57.387Z,10.32
2023-10-10T02:43:47.246Z,9.95
2023-10-10T02:46:19.384Z,10.27
2023-10-10T02:48:46.695Z,11.43
2023-10-10T02:51:17.302Z,11.02
2023-10-10T02:53:47.919Z,11.50
2023-10-10T02:56:19.875Z,10.77
2023-10-10T02:58:49.861Z,12.35
2023-10-10T03:01:43.208Z,11.05
2023-10-10T03:04:10.728Z,11.38
2023-10-10T03:06:39.227Z,12.00
2023-10-10T03:09:35.233Z,13.05
2023-10-10T03:12:06.592Z,14.55
2023-10-10T03:14:36.175Z,13.82
2023-10-10T03:17:29.356Z,14.73
2023-10-10T03:20:26.398Z,15.13
2023-10-10T03:23:09.278Z,16.60
2023-10-10T03:25:52.340Z,16.00
2023-10-10T03:28:22.114Z,17.92
2023-10-10T03:31:09.540Z,17.38
2023-10-10T03:33:43.633Z,17.67
2023-10-10T03:36:19.273Z,18.75
2023-10-10T03:38:53.602Z,18.83
2023-10-10T03:41:24.986Z,19.70
2023-10-10T03:44:14.781Z,19.67
2023-10-10T03:47:03.195Z,18.58
2023-10-10T03:49:52.686Z,19.88
2023-10-10T03:52:38.679Z,19.30
2023-10-10T03:55:24.522Z,19.80
2023-10-10T03:58:10.328Z,19.17
2023-10-10T04:00:56.334Z,19.30
2023-10-10T04:03:42.521Z,19.83
2023-10-10T04:06:48.072Z,21.73
2023-10-10T04:09:33.930Z,18.20
2023-10-10T04:12:19.811Z,20.35
2023-10-10T04:15:05.685Z,19.20
2023-10-10T04:17:51.553Z,19.40
2023-10-10T04:20:37.513Z,18.70
2023-10-10T04:23:23.700Z,19.25
2023-10-10T04:26:20.281Z,18.30
2023-10-10T04:29:06.617Z,19.17
2023-10-10T04:31:52.597Z,19.38
2023-10-10T04:34:38.341Z,17.92
2023-10-10T04:37:24.404Z,18.35
2023-10-10T04:40:10.470Z,18.70
2023-10-10T04:42:56.335Z,18.45
2023-10-10T04:45:42.087Z,19.80
2023-10-10T04:48:27.982Z,19.02
2023-10-10T04:51:14.062Z,19.45
2023-10-10T04:54:00.221Z,19.10
2023-10-10T04:56:46.177Z,18.60
2023-10-10T04:59:32.048Z,19.58
2023-10-10T05:02:17.935Z,18.50
2023-10-10T05:05:03.957Z,18.73
2023-10-10T05:07:50.812Z,20.35
2023-10-10T05:10:36.926Z,20.02
2023-10-10T05:13:22.960Z,19.98
2023-10-10T05:16:09.158Z,20.63
2023-10-10T05:18:54.835Z,21.05
2023-10-10T05:21:40.420Z,21.02
2023-10-10T05:26:47.663Z,21.13
2023-10-10T05:29:15.884Z,21.67
2023-10-10T05:31:45.950Z,21.90
2023-10-10T05:34:16.228Z,22.33
2023-10-10T05:36:46.028Z,23.23
2023-10-10T05:39:18.829Z,25.02
2023-10-10T05:41:48.536Z,23.15
2023-10-10T05:44:20.139Z,23.38
2023-10-10T05:46:48.797Z,25.25
2023-10-10T05:49:16.293Z,23.55
2023-10-10T05:51:43.539Z,23.88
2023-10-10T05:54:13.697Z,24.15
2023-10-10T05:56:42.555Z,24.23
2023-10-10T05:59:09.853Z,22.55
2023-10-10T06:01:38.788Z,24.02
2023-10-10T06:04:08.576Z,23.38
2023-10-10T06:06:37.339Z,25.17
2023-10-10T06:09:06.413Z,24.15
2023-10-10T06:11:35.778Z,24.23
2023-10-10T06:14:05.407Z,24.05
2023-10-10T06:16:33.717Z,23.98
2023-10-10T06:19:02.538Z,23.30
2023-10-10T06:21:30.790Z,24.00
2023-10-10T06:23:58.369Z,23.15
2023-10-10T06:26:25.769Z,23.60
2023-10-10T06:28:54.810Z,24.27
2023-10-10T06:31:22.934Z,24.00
2023-10-10T06:33:57.585Z,24.55
2023-10-10T06:36:25.252Z,23.40
2023-10-10T06:39:05.763Z,23.95
2023-10-10T06:41:37.672Z,25.88
2023-10-10T06:44:05.686Z,24.67
2023-10-10T06:46:33.754Z,24.55
2023-10-10T06:49:05.805Z,24.98
2023-10-10T06:51:34.790Z,24.83
2023-10-10T06:54:04.700Z,25.02
2023-10-10T06:56:55.039Z,25.08
2023-10-10T06:59:28.126Z,25.60
2023-10-10T07:01:58.302Z,25.83
2023-10-10T07:04:28.529Z,24.80
2023-10-10T07:07:01.837Z,25.13
2023-10-10T07:09:30.599Z,25.60
2023-10-10T07:12:10.977Z,26.85
2023-10-10T07:14:45.209Z,25.23
2023-10-10T07:17:13.302Z,25.02
2023-10-10T07:20:02.074Z,26.52
2023-10-10T07:22:34.520Z,25.90
2023-10-10T07:25:08.773Z,26.85
2023-10-10T07:27:36.924Z,26.40
2023-10-10T07:30:17.489Z,26.23
2023-10-10T07:32:45.527Z,25.00
2023-10-10T07:35:15.932Z,25.38
2023-10-10T07:37:46.598Z,25.98
2023-10-10T07:40:14.852Z,26.27
2023-10-10T07:42:42.274Z,25.88
2023-10-10T07:45:15.548Z,23.65
2023-10-10T07:47:58.443Z,26.05
2023-10-10T07:50:36.285Z,25.35
2023-10-10T07:53:05.952Z,25.10
2023-10-10T07:55:36.009Z,25.13
2023-10-10T07:58:07.467Z,24.75
2023-10-10T08:00:38.961Z,25.38
2023-10-10T08:03:13.734Z,24.52
2023-10-10T08:05:44.037Z,27.35
2023-10-10T08:08:14.442Z,24.52
2023-10-10T08:10:43.521Z,26.40
2023-10-10T08:13:13.777Z,25.75
2023-10-10T08:15:51.342Z,25.90
2023-10-10T08:18:40.273Z,24.73
2023-10-10T08:21:11.626Z,23.75
2023-10-10T08:23:44.187Z,25.50
2023-10-10T08:26:19.101Z,24.50
2023-10-10T08:28:47.195Z,25.23
2023-10-10T08:31:14.977Z,24.42
2023-10-10T08:33:46.128Z,25.23
2023-10-10T08:36:25.941Z,23.67
2023-10-10T08:38:57.423Z,22.73
2023-10-10T08:41:28.685Z,23.45
2023-10-10T08:43:59.297Z,23.73
2023-10-10T08:46:41.779Z,23.70
2023-10-10T08:49:10.080Z,23.58
2023-10-10T08:51:40.389Z,23.58
2023-10-10T08:54:12.171Z,23.42
2023-10-10T08:57:01.866Z,23.65
2023-10-10T08:59:30.484Z,22.35
2023-10-10T09:02:18.292Z,21.50
2023-10-10T09:04:46.060Z,21.80
2023-10-10T09:07:21.490Z,21.65
2023-10-10T09:10:05.826Z,21.38
2023-10-10T09:12:34.740Z,21.67
2023-10-10T09:15:17.898Z,19.92
2023-10-10T09:17:46.837Z,19.85
2023-10-10T09:20:24.186Z,19.33
2023-10-10T09:23:05.873Z,20.63
2023-10-10T09:25:42.829Z,18.77
2023-10-10T09:28:11.835Z,19.30
2023-10-10T09:30:46.736Z,19.27
2023-10-10T09:33:14.865Z,18.55
2023-10-10T09:35:47.159Z,16.55
2023-10-10T09:38:18.519Z,16.63
2023-10-10T09:40:49.030Z,17.15
2023-10-10T09:43:36.299Z,16.23
2023-10-10T09:46:25.035Z,16.73
2023-10-10T09:48:58.519Z,15.68
2023-10-10T09:51:51.741Z,16.55
2023-10-10T09:54:26.456Z,16.05
2023-10-10T09:56:57.338Z,16.35
2023-10-10T09:59:29.787Z,15.57
2023-10-10T10:02:06.133Z,14.80
2023-10-10T10:04:39.417Z,14.25
2023-10-10T10:07:30.266Z,15.18
2023-10-10T10:10:10.368Z,13.32
2023-10-10T10:12:46.272Z,13.75
2023-10-10T10:15:29.808Z,13.75
2023-10-10T10:18:12.060Z,15.23
2023-10-10T10:20:50.542Z,14.55
2023-10-10T10:23:27.495Z,14.25
2023-10-10T10:25:55.710Z,14.13
2023-10-10T10:28:32.130Z,13.95
2023-10-10T10:31:05.744Z,13.98
2023-10-10T10:33:36.329Z,13.98
2023-10-10T10:36:16.641Z,15.07
2023-10-10T10:39:04.103Z,14.18
2023-10-10T10:41:44.012Z,13.80
2023-10-10T10:44:14.208Z,14.00
2023-10-10T10:46:42.264Z,13.32
2023-10-10T10:49:13.955Z,13.25
2023-10-10T10:51:43.911Z,12.82
2023-10-10T10:54:30.971Z,13.25
2023-10-10T10:57:04.047Z,13.00
2023-10-10T10:59:37.723Z,13.60
2023-10-10T11:02:15.544Z,12.75
2023-10-10T11:04:50.739Z,12.18
2023-10-10T11:07:27.560Z,12.07
2023-10-10T11:10:08.150Z,12.23
2023-10-10T11:12:38.157Z,12.00
2023-10-10T11:15:09.249Z,12.38
2023-10-10T11:17:40.125Z,11.80
2023-10-10T11:20:41.798Z,12.65
2023-10-10T11:23:13.227Z,12.23
2023-10-10T11:25:47.911Z,12.82
2023-10-10T11:28:24.800Z,12.02
2023-10-10T11:30:52.776Z,12.52
2023-10-10T11:33:47.246Z,11.57
2023-10-10T11:36:24.461Z,10.70
2023-10-10T11:38:57.751Z,12.43
2023-10-10T11:41:32.310Z,12.32
2023-10-10T11:44:03.082Z,11.50
2023-10-10T11:46:31.580Z,11.90
2023-10-10T11:49:01.060Z,11.23
2023-10-10T11:51:37.620Z,10.93
2023-10-10T11:54:04.844Z,11.05
2023-10-10T11:56:35.546Z,11.15
2023-10-10T11:59:11.105Z,11.45
2023-10-10T12:01:52.674Z,11.43
2023-10-10T12:04:32.578Z,10.80
2023-10-10T12:07:03.466Z,10.70
2023-10-10T12:12:00.840Z,10.00
2023-10-10T12:14:31.473Z,10.15
2023-10-10T12:16:59.352Z,10.50
2023-10-10T12:19:37.382Z,11.73
2023-10-10T12:22:16.850Z,11.73
2023-10-10T12:24:44.201Z,10.93
2023-10-10T12:27:11.635Z,10.90
2023-10-10T12:29:42.376Z,11.65
2023-10-10T12:32:16.937Z,11.55
2023-10-10T12:34:44.578Z,10.75
2023-10-10T12:37:11.751Z,10.13
2023-10-10T12:39:39.265Z,10.10
2023-10-10T12:42:08.852Z,9.60
2023-10-10T12:44:36.329Z,10.88
2023-10-10T12:47:07.558Z,11.55
2023-10-10T12:49:37.933Z,11.02
2023-10-10T12:52:13.033Z,10.43
2023-10-10T12:54:42.821Z,10.32
2023-10-10T12:57:15.167Z,11.75
2023-10-10T12:59:47.588Z,11.35
2023-10-10T13:02:16.766Z,11.45
2023-10-10T13:04:48.213Z,9.93
2023-10-10T13:07:17.540Z,10.77
2023-10-10T13:09:47.596Z,9.55
2023-10-10T13:12:28.397Z,10.85
2023-10-10T13:15:07.607Z,10.27
2023-10-10T13:17:51.260Z,11.27
2023-10-10T13:20:19.913Z,10.80
2023-10-10T13:22:51.751Z,10.23
2023-10-10T13:25:20.400Z,10.63
2023-10-10T13:27:47.795Z,9.93
2023-10-10T13:30:15.181Z,10.15
2023-10-10T13:32:43.889Z,8.88
2023-10-10T13:35:11.824Z,9.40
2023-10-10T13:37:44.367Z,8.95
2023-10-10T13:40:22.004Z,9.45
2023-10-10T13:42:49.270Z,8.70
2023-10-10T13:45:22.564Z,8.68
2023-10-10T13:47:49.893Z,8.25
2023-10-10T13:50:29.511Z,8.65
2023-10-10T13:52:57.351Z,8.48
2023-10-10T13:55:24.523Z,7.97
2023-10-10T13:57:51.704Z,8.15
2023-10-10T14:00:37.341Z,8.90
2023-10-10T14:03:05.744Z,8.63
2023-10-10T14:05:42.811Z,8.40
2023-10-10T14:08:18.995Z,9.05
2023-10-10T14:10:51.256Z,8.35
2023-10-10T14:13:21.330Z,8.18
2023-10-10T14:15:59.164Z,8.38
2023-10-10T14:18:31.048Z,8.68
2023-10-10T14:21:02.472Z,8.35
2023-10-10T14:23:31.268Z,8.35
2023-10-10T14:26:13.738Z,7.57
2023-10-10T14:28:54.245Z,8.13
2023-10-10T14:31:23.176Z,8.15
2023-10-10T14:33:51.127Z,7.50
2023-10-10T14:36:18.540Z,8.13
2023-10-10T14:38:46.315Z,7.63
2023-10-10T14:41:18.854Z,7.43
2023-10-10T14:43:49.672Z,6.70
2023-10-10T14:46:25.212Z,7.05
2023-10-10T14:49:01.791Z,6.47
2023-10-10T14:51:35.211Z,6.05
2023-10-10T14:54:12.941Z,5.85
2023-10-10T14:56:52.712Z,6.00
2023-10-10T14:59:22.094Z,6.13
2023-10-10T15:01:49.494Z,5.63
2023-10-10T15:04:20.869Z,5.03
2023-10-10T15:06:49.196Z,5.72
2023-10-10T15:09:20.671Z,5.60
2023-10-10T15:11:48.543Z,5.22
2023-10-10T15:14:19.956Z,5.38
2023-10-10T15:16:50.695Z,5.40
2023-10-10T15:19:18.279Z,5.22
2023-10-10T15:21:49.465Z,5.50
2023-10-10T15:24:16.852Z,5.60
2023-10-10T15:26:48.800Z,5.25
2023-10-10T15:29:17.483Z,6.03
2023-10-10T15:31:45.066Z,6.18
2023-10-10T15:34:13.073Z,5.57
2023-10-10T15:36:44.786Z,6.20
2023-10-10T15:39:12.369Z,5.15
2023-10-10T15:41:41.948Z,5.65
2023-10-10T15:44:10.828Z,5.43
2023-10-10T15:46:41.361Z,5.13
2023-10-10T15:49:29.037Z,5.50
2023-10-10T15:52:04.791Z,4.85
2023-10-10T15:54:35.335Z,5.07
2023-10-10T15:57:07.545Z,6.00
2023-10-10T15:59:34.961Z,5.47
2023-10-10T16:02:02.153Z,5.03
2023-10-10T16:04:29.502Z,5.40
2023-10-10T16:06:59.343Z,5.07
2023-10-10T16:09:32.757Z,5.15
2023-10-10T16:12:00.061Z,5.47
2023-10-10T16:14:27.757Z,5.40
2023-10-10T16:16:55.897Z,5.35
2023-10-10T16:19:33.527Z,5.30
2023-10-10T16:22:02.378Z,5.22
2023-10-10T16:24:29.677Z,5.07
2023-10-10T16:27:00.834Z,5.20
2023-10-10T16:29:34.415Z,5.97
2023-10-10T16:32:03.481Z,5.00
2023-10-10T16:34:33.332Z,4.45
2023-10-10T16:37:00.576Z,4.78
2023-10-10T16:39:27.367Z,4.88
2023-10-10T16:41:59.665Z,4.90
2023-10-10T16:44:27.535Z,4.65
2023-10-10T16:46:54.852Z,5.22
2023-10-10T16:49:24.050Z,4.88
2023-10-10T16:51:51.552Z,4.10
2023-10-10T16:54:20.010Z,5.28
2023-10-10T16:56:47.217Z,5.55
2023-10-10T16:59:15.691Z,5.00
2023-10-10T17:01:43.391Z,5.20
2023-10-10T17:04:10.964Z,4.90
2023-10-10T17:06:38.201Z,4.60
2023-10-10T17:09:05.684Z,5.15
2023-10-10T17:11:33.145Z,5.28
2023-10-10T17:14:04.360Z,6.30
2023-10-10T17:16:33.189Z,5.32
2023-10-10T17:19:10.959Z,4.90
2023-10-10T17:21:48.581Z,5.15
2023-10-10T17:24:16.763Z,4.97
2023-10-10T17:26:44.762Z,5.07
2023-10-10T17:29:16.495Z,5.38
2023-10-10T17:31:44.134Z,5.43
2023-10-10T17:34:16.808Z,5.40
2023-10-10T17:36:44.455Z,5.40
2023-10-10T17:39:16.547Z,5.65
2023-10-10T17:44:17.219Z,5.85
2023-10-10T17:46:44.765Z,5.50
2023-10-10T17:49:11.969Z,5.82
2023-10-10T17:51:39.221Z,5.55
2023-10-10T17:54:06.541Z,5.28
2023-10-10T17:56:34.556Z,4.93
2023-10-10T17:59:01.862Z,5.60
2023-10-10T18:01:30.234Z,5.45
2023-10-10T18:03:57.808Z,5.68
2023-10-10T18:06:27.292Z,5.72
2023-10-10T18:09:08.945Z,5.90
2023-10-10T18:11:37.481Z,5.22
2023-10-10T18:14:06.327Z,5.22
2023-10-10T18:16:35.340Z,4.97
2023-10-10T18:19:02.807Z,5.63
2023-10-10T18:21:31.105Z,5.57
2023-10-10T18:23:58.425Z,5.22
2023-10-10T18:26:26.017Z,4.78
2023-10-10T18:28:54.841Z,5.05
2023-10-10T18:31:30.768Z,4.63
2023-10-10T18:33:58.522Z,4.75
2023-10-10T18:36:25.738Z,4.88
2023-10-10T18:38:53.701Z,4.68
2023-10-10T18:41:24.734Z,5.07
2023-10-10T18:43:52.272Z,4.00
2023-10-10T18:46:19.470Z,4.78
2023-10-10T18:48:46.925Z,4.07
2023-10-10T18:51:15.197Z,4.82
2023-10-10T18:53:42.725Z,4.70
2023-10-10T18:56:10.190Z,4.45
2023-10-10T18:58:39.660Z,4.60
2023-10-10T19:01:15.096Z,4.30
2023-10-10T19:03:49.090Z,4.50
2023-10-10T19:06:19.008Z,4.95
2023-10-10T19:08:49.796Z,4.28
2023-10-10T19:11:24.546Z,4.15
2023-10-10T19:13:51.912Z,4.32
2023-10-10T19:16:19.390Z,3.50
2023-10-10T19:18:47.330Z,4.07
2023-10-10T19:21:16.656Z,3.85
2023-10-10T19:23:44.871Z,4.15
2023-10-10T19:26:13.871Z,3.80
2023-10-10T19:28:42.970Z,3.70
2023-10-10T19:31:10.594Z,3.45
2023-10-10T19:33:38.197Z,4.22
2023-10-10T19:36:09.189Z,3.60
2023-10-10T19:38:36.631Z,3.88
2023-10-10T19:41:09.459Z,3.20
2023-10-10T19:43:40.293Z,4.38
2023-10-10T19:46:11.762Z,4.55
2023-10-10T19:48:41.731Z,3.75
2023-10-10T19:51:19.426Z,3.33
2023-10-10T19:53:50.026Z,3.63
2023-10-10T19:56:17.812Z,3.28
2023-10-10T19:58:46.943Z,3.45
2023-10-10T20:01:14.581Z,3.55
2023-10-10T20:03:43.526Z,3.58
2023-10-10T20:06:21.071Z,3.80
2023-10-10T20:08:55.047Z,3.70
2023-10-10T20:11:25.395Z,2.90
2023-10-10T20:13:52.952Z,3.67
2023-10-10T20:16:22.660Z,3.35
2023-10-10T20:18:54.616Z,3.90
2023-10-10T20:21:25.360Z,3.15
2023-10-10T20:23:52.497Z,3.90
2023-10-10T20:26:20.735Z,3.88
2023-10-10T20:28:48.975Z,3.55
2023-10-10T20:31:18.415Z,3.60
2023-10-10T20:33:48.108Z,3.50
2023-10-10T20:36:16.161Z,2.97
2023-10-10T20:38:44.457Z,2.95
2023-10-10T20:41:12.592Z,3.53
2023-10-10T20:43:41.010Z,3.08
2023-10-10T20:46:08.426Z,3.63
2023-10-10T20:48:36.360Z,3.25
2023-10-10T20:51:04.745Z,3.80
2023-10-10T20:53:32.924Z,3.65
2023-10-10T20:56:02.145Z,3.20
2023-10-10T20:58:30.270Z,3.60
2023-10-10T21:00:57.682Z,3.20
2023-10-10T21:03:25.205Z,3.47
2023-10-10T21:05:52.494Z,3.33
2023-10-10T21:08:19.727Z,3.15
2023-10-10T21:10:47.223Z,3.60
2023-10-10T21:13:14.581Z,3.38
2023-10-10T21:15:45.553Z,3.10
2023-10-10T21:18:12.860Z,3.70
2023-10-10T21:20:56.231Z,3.03
2023-10-10T21:23:28.265Z,4.30
2023-10-10T21:25:55.607Z,3.78
2023-10-10T21:28:23.994Z,3.78
2023-10-10T21:30:52.187Z,3.30
2023-10-10T21:33:19.623Z,3.42
2023-10-10T21:35:49.047Z,3.17
2023-10-10T21:38:16.235Z,3.47
2023-10-10T21:40:43.441Z,3.50
2023-10-10T21:43:11.232Z,3.50
2023-10-10T21:45:40.011Z,4.15
2023-10-10T21:48:11.146Z,4.13
2023-10-10T21:50:42.454Z,3.55
2023-10-10T21:53:10.205Z,3.90
2023-10-10T21:55:38.475Z,3.53
2023-10-10T21:58:06.306Z,3.80
2023-10-10T22:00:34.042Z,4.15
2023-10-10T22:03:05.364Z,4.97
2023-10-10T22:05:33.390Z,4.40
2023-10-10T22:08:00.732Z,4.00
2023-10-10T22:10:28.425Z,4.07
2023-10-10T22:12:56.318Z,4.80
2023-10-10T22:15:26.837Z,4.43
2023-10-10T22:17:58.026Z,4.40
2023-10-10T22:20:28.989Z,4.75
2023-10-10T22:22:56.389Z,5.05
2023-10-10T22:25:23.950Z,5.00
2023-10-10T22:27:52.547Z,5.20
2023-10-10T22:30:25.479Z,5.20
2023-10-10T22:32:53.690Z,5.35
2023-10-10T22:35:22.425Z,4.70
2023-10-10T22:37:50.693Z,5.38
2023-10-10T22:40:18.685Z,5.50
2023-10-10T22:42:46.031Z,5.70
2023-10-10T22:45:20.549Z,5.25
2023-10-10T22:47:48.776Z,5.60
2023-10-10T22:50:16.296Z,6.10
2023-10-10T22:52:45.878Z,5.45
2023-10-10T22:55:14.110Z,6.50
2023-10-10T22:57:42.839Z,5.55
2023-10-10T23:00:14.533Z,6.63
2023-10-10T23:02:43.299Z,5.40
2023-10-10T23:05:14.389Z,5.25
2023-10-10T23:07:42.708Z,5.80
2023-10-10T23:10:17.351Z,5.68
2023-10-10T23:12:44.823Z,6.43
2023-10-10T23:15:12.712Z,5.97
2023-10-10T23:17:41.173Z,6.75
2023-10-10T23:20:22.119Z,6.68
2023-10-10T23:22:55.217Z,6.85
2023-10-10T23:25:22.436Z,6.65
2023-10-10T23:27:51.357Z,6.82
2023-10-10T23:30:22.164Z,6.88
2023-10-10T23:32:50.808Z,6.50
2023-10-10T23:35:22.627Z,6.85
2023-10-10T23:37:59.263Z,6.28
2023-10-10T23:40:26.837Z,6.57
2023-10-10T23:42:54.349Z,6.18
2023-10-10T23:45:23.727Z,5.97
2023-10-10T23:47:52.971Z,7.03
2023-10-10T23:50:23.794Z,6.70
2023-10-10T23:52:55.344Z,6.82
2023-10-10T23:55:23.398Z,7.03
2023-10-10T23:57:51.369Z,7.05
